createdAt,value
2019-02-19T00:01:26.994Z,23.81
2019-02-19T00:03:53.643Z,23.83
2019-02-19T00:06:20.331Z,23.84
2019-02-19T00:08:46.983Z,23.82
2019-02-19T00:11:13.643Z,23.82
2019-02-19T00:13:40.308Z,23.80
2019-02-19T00:16:06.971Z,23.82
2019-02-19T00:18:33.635Z,23.80
2019-02-19T00:21:00.304Z,23.78
2019-02-19T00:23:26.971Z,23.77
2019-02-19T00:25:53.652Z,23.75
2019-02-19T00:28:20.311Z,23.76
2019-02-19T00:30:46.975Z,23.74
2019-02-19T00:33:13.635Z,23.81
2019-02-19T00:35:40.284Z,23.75
2019-02-19T00:38:06.989Z,23.75
2019-02-19T00:40:33.729Z,23.80
2019-02-19T00:43:00.415Z,23.78
2019-02-19T00:45:27.071Z,23.79
2019-02-19T00:47:53.779Z,23.72
2019-02-19T00:50:20.434Z,23.77
2019-02-19T00:52:47.094Z,23.75
2019-02-19T00:55:13.870Z,23.73
2019-02-19T00:57:40.541Z,23.79
2019-02-19T01:00:07.250Z,23.75
2019-02-19T01:02:33.902Z,23.75
2019-02-19T01:05:00.605Z,23.72
2019-02-19T01:07:27.263Z,23.71
2019-02-19T01:09:54.049Z,23.68
2019-02-19T01:12:20.717Z,23.74
2019-02-19T01:14:47.380Z,23.69
2019-02-19T01:17:14.085Z,23.70
2019-02-19T01:19:40.727Z,23.65
2019-02-19T01:22:07.491Z,23.66
2019-02-19T01:24:34.191Z,23.68
2019-02-19T01:27:00.876Z,23.73
2019-02-19T01:29:27.535Z,23.67
2019-02-19T01:31:54.193Z,23.67
2019-02-19T01:34:20.862Z,23.67
2019-02-19T01:36:47.522Z,23.70
2019-02-19T01:39:14.194Z,23.61
2019-02-19T01:41:40.834Z,23.62
2019-02-19T01:44:07.509Z,23.66
2019-02-19T01:46:34.151Z,23.62
2019-02-19T01:49:00.861Z,23.64
2019-02-19T01:51:27.525Z,23.65
2019-02-19T01:53:54.201Z,23.65
2019-02-19T01:56:20.959Z,23.62
2019-02-19T01:58:47.629Z,23.59
2019-02-19T02:01:17.020Z,23.62
2019-02-19T02:03:43.689Z,23.62
2019-02-19T02:06:10.552Z,23.60
2019-02-19T02:08:37.199Z,23.62
2019-02-19T02:11:03.892Z,23.57
2019-02-19T02:13:30.551Z,23.65
2019-02-19T02:15:57.207Z,23.58
2019-02-19T02:18:23.875Z,23.62
2019-02-19T02:20:50.554Z,23.57
2019-02-19T02:23:17.210Z,23.54
2019-02-19T02:25:43.858Z,23.59
2019-02-19T02:28:10.578Z,23.58
2019-02-19T02:30:37.243Z,23.60
2019-02-19T02:33:03.903Z,23.51
2019-02-19T02:35:30.594Z,23.18
2019-02-19T02:37:57.265Z,22.98
2019-02-19T02:40:23.911Z,22.83
2019-02-19T02:42:50.562Z,22.92
2019-02-19T02:45:17.367Z,23.00
2019-02-19T02:47:44.024Z,23.17
2019-02-19T02:50:10.673Z,23.29
2019-02-19T02:52:37.346Z,23.35
2019-02-19T02:55:04.056Z,23.33
2019-02-19T02:57:30.697Z,23.35
2019-02-19T02:59:57.497Z,23.43
2019-02-19T03:02:24.189Z,23.43
2019-02-19T03:04:50.800Z,23.47
2019-02-19T03:07:17.462Z,23.47
2019-02-19T03:09:44.151Z,23.52
2019-02-19T03:12:10.810Z,23.52
2019-02-19T03:14:37.450Z,23.47
2019-02-19T03:17:04.121Z,23.52
2019-02-19T03:19:30.814Z,23.54
2019-02-19T03:21:57.478Z,23.51
2019-02-19T03:24:24.128Z,23.51
2019-02-19T03:26:50.797Z,23.51
2019-02-19T03:29:17.535Z,23.59
2019-02-19T03:31:44.217Z,23.57
2019-02-19T03:34:10.914Z,23.52
2019-02-19T03:36:37.565Z,23.61
2019-02-19T03:39:04.214Z,23.59
2019-02-19T03:41:30.871Z,23.58
2019-02-19T03:43:57.631Z,23.59
2019-02-19T03:46:24.333Z,23.59
2019-02-19T03:48:50.992Z,23.58
2019-02-19T03:51:17.682Z,23.64
2019-02-19T03:53:44.378Z,23.61
2019-02-19T03:56:10.984Z,23.64
2019-02-19T03:58:37.638Z,23.62
2019-02-19T04:01:04.292Z,23.64
2019-02-19T04:03:30.964Z,23.66
2019-02-19T04:05:57.608Z,23.51
2019-02-19T04:08:24.298Z,22.72
2019-02-19T04:10:50.949Z,22.49
2019-02-19T04:13:17.624Z,22.30
2019-02-19T04:15:44.338Z,22.09
2019-02-19T04:18:10.997Z,22.19
2019-02-19T04:20:37.675Z,21.75
2019-02-19T04:23:04.353Z,21.80
2019-02-19T04:25:31.011Z,21.59
2019-02-19T04:27:57.727Z,21.40
2019-02-19T04:30:24.391Z,21.37
2019-02-19T04:32:51.063Z,21.21
2019-02-19T04:35:17.776Z,21.17
2019-02-19T04:37:44.483Z,21.41
2019-02-19T04:40:11.187Z,21.96
2019-02-19T04:42:37.847Z,22.43
2019-02-19T04:45:04.556Z,22.55
2019-02-19T04:47:31.215Z,22.75
2019-02-19T04:49:57.926Z,22.79
2019-02-19T04:52:24.573Z,23.05
2019-02-19T04:54:51.306Z,23.06
2019-02-19T04:57:17.954Z,23.11
2019-02-19T04:59:44.605Z,23.14
2019-02-19T05:02:11.328Z,23.44
2019-02-19T05:04:38.033Z,23.46
2019-02-19T05:07:04.679Z,23.48
2019-02-19T05:09:31.389Z,23.41
2019-02-19T05:11:58.061Z,23.30
2019-02-19T05:14:24.766Z,23.40
2019-02-19T05:16:51.448Z,23.30
2019-02-19T05:19:18.107Z,23.36
2019-02-19T05:21:44.769Z,23.44
2019-02-19T05:24:11.467Z,23.36
2019-02-19T05:26:38.159Z,23.46
2019-02-19T05:29:05.057Z,23.40
2019-02-19T05:31:31.808Z,23.30
2019-02-19T05:33:58.473Z,23.34
2019-02-19T05:36:25.140Z,23.39
2019-02-19T05:38:51.877Z,23.40
2019-02-19T05:41:18.541Z,23.48
2019-02-19T05:43:45.206Z,23.57
2019-02-19T05:46:11.894Z,23.57
2019-02-19T05:48:38.559Z,23.56
2019-02-19T05:51:05.219Z,23.63
2019-02-19T05:53:31.868Z,23.69
2019-02-19T05:55:58.551Z,23.85
2019-02-19T05:58:25.213Z,23.90
2019-02-19T06:00:51.932Z,23.92
2019-02-19T06:03:18.600Z,24.07
2019-02-19T06:05:45.253Z,24.66
2019-02-19T06:08:11.924Z,24.99
2019-02-19T06:10:38.701Z,25.00
2019-02-19T06:13:05.368Z,24.80
2019-02-19T06:15:32.025Z,24.39
2019-02-19T06:17:58.696Z,24.44
2019-02-19T06:20:25.395Z,24.50
2019-02-19T06:22:52.043Z,24.62
2019-02-19T06:25:18.740Z,24.71
2019-02-19T06:27:45.402Z,24.90
2019-02-19T06:30:12.082Z,24.78
2019-02-19T06:32:38.783Z,24.70
2019-02-19T06:35:05.458Z,24.67
2019-02-19T06:37:32.136Z,24.52
2019-02-19T06:39:58.816Z,24.56
2019-02-19T06:42:25.634Z,24.56
2019-02-19T06:44:52.296Z,24.62
2019-02-19T06:47:18.958Z,24.66
2019-02-19T06:49:45.639Z,24.64
2019-02-19T06:52:12.386Z,24.74
2019-02-19T06:54:39.050Z,24.61
2019-02-19T06:57:05.718Z,24.64
2019-02-19T06:59:32.377Z,24.68
2019-02-19T07:01:59.046Z,24.70
2019-02-19T07:04:25.726Z,24.73
2019-02-19T07:06:52.420Z,24.86
2019-02-19T07:09:19.090Z,24.84
2019-02-19T07:11:45.758Z,24.90
2019-02-19T07:14:12.400Z,24.85
2019-02-19T07:16:39.062Z,24.83
2019-02-19T07:19:05.735Z,24.77
2019-02-19T07:21:32.404Z,24.88
2019-02-19T07:24:04.380Z,24.92
2019-02-19T07:26:26.758Z,25.00
2019-02-19T07:28:53.416Z,25.02
2019-02-19T07:31:20.082Z,25.11
2019-02-19T07:33:46.749Z,25.00
2019-02-19T07:36:13.409Z,25.10
2019-02-19T07:38:40.071Z,25.02
2019-02-19T07:41:06.725Z,25.07
2019-02-19T07:43:33.395Z,25.09
2019-02-19T07:46:07.930Z,25.11
2019-02-19T07:48:35.289Z,25.19
2019-02-19T07:51:02.494Z,25.07
2019-02-19T07:53:31.630Z,25.04
2019-02-19T07:55:55.912Z,25.18
2019-02-19T07:58:22.585Z,25.06
2019-02-19T08:00:49.290Z,25.14
2019-02-19T08:03:15.957Z,25.14
2019-02-19T08:05:42.693Z,25.07
2019-02-19T08:08:09.505Z,25.11
2019-02-19T08:10:36.229Z,25.24
2019-02-19T08:13:02.895Z,25.25
2019-02-19T08:15:29.707Z,25.16
2019-02-19T08:17:56.305Z,25.20
2019-02-19T08:20:23.027Z,25.17
2019-02-19T08:22:49.727Z,25.24
2019-02-19T08:25:16.442Z,25.30
2019-02-19T08:27:43.099Z,25.32
2019-02-19T08:30:11.152Z,25.25
2019-02-19T08:32:36.459Z,25.19
2019-02-19T08:35:03.136Z,25.23
2019-02-19T08:37:29.798Z,25.31
2019-02-19T08:39:56.487Z,25.34
2019-02-19T08:42:23.172Z,25.36
2019-02-19T08:44:49.836Z,25.34
2019-02-19T08:47:16.633Z,25.35
2019-02-19T08:49:43.288Z,25.38
2019-02-19T08:52:09.939Z,25.38
2019-02-19T08:54:36.619Z,25.33
2019-02-19T08:57:03.341Z,25.47
2019-02-19T08:59:29.999Z,25.39
2019-02-19T09:01:56.781Z,25.45
2019-02-19T09:04:23.435Z,25.39
2019-02-19T09:06:50.114Z,25.45
2019-02-19T09:09:16.838Z,25.39
2019-02-19T09:11:43.496Z,25.39
2019-02-19T09:14:10.202Z,25.35
2019-02-19T09:16:36.897Z,25.47
2019-02-19T09:19:03.563Z,25.50
2019-02-19T09:21:30.235Z,25.52
2019-02-19T09:23:58.462Z,25.41
2019-02-19T09:26:23.748Z,25.61
2019-02-19T09:28:50.478Z,25.46
2019-02-19T09:31:17.185Z,25.55
2019-02-19T09:33:43.871Z,25.56
2019-02-19T09:36:10.550Z,25.46
2019-02-19T09:38:37.221Z,25.50
2019-02-19T09:41:03.906Z,25.62
2019-02-19T09:43:35.451Z,25.66
2019-02-19T09:45:58.966Z,25.58
2019-02-19T09:48:23.928Z,25.57
2019-02-19T09:50:50.613Z,25.65
2019-02-19T09:53:17.278Z,25.58
2019-02-19T09:55:43.965Z,25.62
2019-02-19T09:58:10.619Z,25.61
2019-02-19T10:00:37.271Z,25.62
2019-02-19T10:03:03.981Z,25.46
2019-02-19T10:05:30.730Z,25.53
2019-02-19T10:07:57.401Z,25.53
2019-02-19T10:10:24.075Z,25.57
2019-02-19T10:12:50.824Z,25.59
2019-02-19T10:15:17.482Z,25.65
2019-02-19T10:17:44.194Z,25.58
2019-02-19T10:20:10.924Z,25.62
2019-02-19T10:22:37.586Z,25.64
2019-02-19T10:25:04.245Z,25.70
2019-02-19T10:27:30.961Z,25.73
2019-02-19T10:29:57.622Z,25.69
2019-02-19T10:32:24.327Z,25.73
2019-02-19T10:34:51.034Z,25.66
2019-02-19T10:37:17.698Z,25.45
2019-02-19T10:39:44.355Z,25.41
2019-02-19T10:42:11.024Z,25.21
2019-02-19T10:44:37.718Z,25.22
2019-02-19T10:47:04.369Z,25.22
2019-02-19T10:49:31.051Z,25.30
2019-02-19T10:51:57.737Z,25.48
2019-02-19T10:54:24.501Z,25.44
2019-02-19T10:56:51.183Z,25.49
2019-02-19T10:59:17.908Z,25.55
2019-02-19T11:01:44.593Z,25.63
2019-02-19T11:04:11.267Z,25.61
2019-02-19T11:06:39.051Z,25.67
2019-02-19T11:09:04.635Z,25.63
2019-02-19T11:11:31.331Z,25.66
2019-02-19T11:13:58.024Z,25.78
2019-02-19T11:16:24.686Z,25.89
2019-02-19T11:18:51.359Z,25.93
2019-02-19T11:21:19.890Z,25.95
2019-02-19T11:23:44.735Z,25.84
2019-02-19T11:26:11.419Z,25.84
2019-02-19T11:28:38.092Z,25.95
2019-02-19T11:31:04.758Z,25.98
2019-02-19T11:33:31.433Z,26.05
2019-02-19T11:35:58.115Z,26.01
2019-02-19T11:38:24.764Z,25.99
2019-02-19T11:40:51.505Z,26.06
2019-02-19T11:43:18.158Z,26.13
2019-02-19T11:45:44.826Z,26.13
2019-02-19T11:48:11.502Z,26.01
2019-02-19T11:50:38.178Z,26.14
2019-02-19T11:53:04.876Z,26.18
2019-02-19T11:55:31.534Z,26.10
2019-02-19T11:57:58.210Z,26.27
2019-02-19T12:00:24.876Z,26.16
2019-02-19T12:02:51.538Z,26.31
2019-02-19T12:05:18.234Z,26.37
2019-02-19T12:07:44.899Z,26.42
2019-02-19T12:10:12.154Z,26.45
2019-02-19T12:12:38.240Z,26.50
2019-02-19T12:15:04.959Z,26.39
2019-02-19T12:17:31.714Z,26.52
2019-02-19T12:19:58.409Z,26.44
2019-02-19T12:22:27.669Z,26.50
2019-02-19T12:24:54.377Z,26.44
2019-02-19T12:27:21.067Z,26.50
2019-02-19T12:29:47.742Z,26.39
2019-02-19T12:32:14.415Z,26.43
2019-02-19T12:34:41.116Z,26.25
2019-02-19T12:37:07.776Z,26.23
2019-02-19T12:39:34.455Z,26.13
2019-02-19T12:42:01.124Z,26.04
2019-02-19T12:44:27.804Z,26.04
2019-02-19T12:46:54.512Z,25.95
2019-02-19T12:49:21.147Z,25.87
2019-02-19T12:51:47.820Z,25.89
2019-02-19T12:54:14.495Z,25.94
2019-02-19T12:56:41.209Z,25.78
2019-02-19T12:59:07.901Z,26.06
2019-02-19T13:01:34.570Z,25.91
2019-02-19T13:04:01.224Z,25.79
2019-02-19T13:06:27.885Z,25.66
2019-02-19T13:08:54.570Z,25.66
2019-02-19T13:11:21.277Z,25.66
2019-02-19T13:13:48.003Z,25.74
2019-02-19T13:16:14.673Z,25.71
2019-02-19T13:18:41.446Z,25.73
2019-02-19T13:21:08.341Z,25.69
2019-02-19T13:23:35.041Z,25.62
2019-02-19T13:26:01.689Z,25.58
2019-02-19T13:28:28.340Z,25.67
2019-02-19T13:30:55.061Z,25.72
2019-02-19T13:33:21.825Z,25.65
2019-02-19T13:35:48.530Z,25.55
2019-02-19T13:38:15.204Z,25.65
2019-02-19T13:40:41.948Z,25.68
2019-02-19T13:43:08.598Z,25.65
2019-02-19T13:45:35.311Z,25.58
2019-02-19T13:48:06.025Z,25.53
2019-02-19T13:50:28.619Z,25.54
2019-02-19T13:52:55.313Z,25.47
2019-02-19T13:55:21.995Z,25.45
2019-02-19T13:57:48.662Z,25.66
2019-02-19T14:00:15.385Z,25.55
2019-02-19T14:02:42.070Z,25.57
2019-02-19T14:05:08.786Z,25.52
2019-02-19T14:07:35.465Z,25.55
2019-02-19T14:10:02.120Z,25.48
2019-02-19T14:12:28.819Z,25.43
2019-02-19T14:14:56.620Z,25.47
2019-02-19T14:17:23.297Z,25.46
2019-02-19T14:19:50.037Z,25.39
2019-02-19T14:22:16.723Z,25.48
2019-02-19T14:24:44.655Z,25.71
2019-02-19T14:27:11.356Z,25.50
2019-02-19T14:29:38.056Z,25.48
2019-02-19T14:32:06.049Z,25.52
2019-02-19T14:34:32.398Z,25.45
2019-02-19T14:36:59.078Z,25.59
2019-02-19T14:39:25.725Z,25.46
2019-02-19T14:41:52.450Z,25.36
2019-02-19T14:44:19.120Z,25.38
2019-02-19T14:46:45.850Z,25.53
2019-02-19T14:49:12.525Z,25.66
2019-02-19T14:51:39.205Z,25.53
2019-02-19T14:54:05.929Z,25.47
2019-02-19T14:56:32.616Z,25.55
2019-02-19T14:58:59.332Z,25.48
2019-02-19T15:01:26.069Z,25.57
2019-02-19T15:03:52.730Z,25.67
2019-02-19T15:06:19.440Z,25.59
2019-02-19T15:08:46.100Z,25.61
2019-02-19T15:11:12.863Z,25.79
2019-02-19T15:13:39.592Z,25.77
2019-02-19T15:16:06.371Z,25.77
2019-02-19T15:18:33.008Z,25.77
2019-02-19T15:20:59.711Z,25.74
2019-02-19T15:23:26.376Z,25.76
2019-02-19T15:25:53.071Z,25.69
2019-02-19T15:28:19.724Z,25.86
2019-02-19T15:30:46.460Z,25.68
2019-02-19T15:33:13.116Z,25.75
2019-02-19T15:35:39.839Z,25.61
2019-02-19T15:38:06.592Z,25.64
2019-02-19T15:40:33.431Z,25.65
2019-02-19T15:43:00.109Z,25.74
2019-02-19T15:45:26.787Z,25.56
2019-02-19T15:47:53.455Z,25.68
2019-02-19T15:50:20.118Z,25.62
2019-02-19T15:52:49.451Z,25.75
2019-02-19T15:55:16.108Z,25.65
2019-02-19T15:57:42.840Z,25.64
2019-02-19T16:00:09.499Z,25.54
2019-02-19T16:02:36.155Z,25.72
2019-02-19T16:05:02.847Z,25.52
2019-02-19T16:07:29.506Z,25.57
2019-02-19T16:09:56.176Z,25.49
2019-02-19T16:12:22.834Z,25.54
2019-02-19T16:14:49.498Z,25.46
2019-02-19T16:17:16.160Z,25.49
2019-02-19T16:19:42.832Z,25.40
2019-02-19T16:22:09.519Z,25.42
2019-02-19T16:24:36.214Z,25.38
2019-02-19T16:27:02.912Z,25.42
2019-02-19T16:29:29.587Z,25.37
2019-02-19T16:31:56.292Z,25.34
2019-02-19T16:34:22.955Z,25.35
2019-02-19T16:36:49.610Z,25.32
2019-02-19T16:39:16.275Z,25.29
2019-02-19T16:41:42.944Z,25.29
2019-02-19T16:44:09.598Z,25.24
2019-02-19T16:46:36.328Z,25.24
2019-02-19T16:49:03.006Z,25.32
2019-02-19T16:51:29.638Z,25.21
2019-02-19T16:53:56.310Z,25.17
2019-02-19T16:56:23.052Z,25.17
2019-02-19T16:58:49.700Z,25.28
2019-02-19T17:01:16.471Z,25.08
2019-02-19T17:03:43.193Z,25.12
2019-02-19T17:06:09.904Z,25.16
2019-02-19T17:08:36.615Z,25.06
2019-02-19T17:11:03.297Z,25.05
2019-02-19T17:13:29.962Z,25.11
2019-02-19T17:15:56.620Z,25.03
2019-02-19T17:18:23.346Z,25.12
2019-02-19T17:20:50.068Z,25.06
2019-02-19T17:23:16.729Z,25.15
2019-02-19T17:25:43.395Z,25.03
2019-02-19T17:28:10.065Z,25.18
2019-02-19T17:30:36.731Z,25.00
2019-02-19T17:33:03.392Z,25.06
2019-02-19T17:35:30.051Z,24.92
2019-02-19T17:37:56.702Z,24.94
2019-02-19T17:40:23.379Z,24.88
2019-02-19T17:42:51.634Z,24.97
2019-02-19T17:45:16.762Z,24.90
2019-02-19T17:47:43.423Z,24.91
2019-02-19T17:50:10.102Z,24.86
2019-02-19T17:52:36.872Z,24.90
2019-02-19T17:55:03.522Z,24.88
2019-02-19T17:57:30.172Z,24.88
2019-02-19T17:59:56.852Z,24.83
2019-02-19T18:02:23.500Z,24.86
2019-02-19T18:04:50.158Z,24.81
2019-02-19T18:07:16.896Z,24.87
2019-02-19T18:09:43.554Z,24.82
2019-02-19T18:12:10.202Z,24.84
2019-02-19T18:14:36.880Z,24.81
2019-02-19T18:17:03.732Z,24.81
2019-02-19T18:19:30.309Z,24.78
2019-02-19T18:21:57.001Z,24.80
2019-02-19T18:24:23.697Z,24.76
2019-02-19T18:26:50.479Z,24.77
2019-02-19T18:29:17.137Z,24.76
2019-02-19T18:31:43.814Z,24.78
2019-02-19T18:34:10.530Z,24.76
2019-02-19T18:36:37.188Z,24.74
2019-02-19T18:39:03.892Z,24.74
2019-02-19T18:41:30.650Z,24.72
2019-02-19T18:43:57.314Z,24.72
2019-02-19T18:46:24.025Z,24.70
2019-02-19T18:48:50.645Z,24.71
2019-02-19T18:51:17.372Z,24.69
2019-02-19T18:53:44.034Z,24.71
2019-02-19T18:56:10.680Z,24.65
2019-02-19T18:58:37.350Z,24.69
2019-02-19T19:01:04.018Z,24.64
2019-02-19T19:03:30.787Z,24.63
2019-02-19T19:05:57.478Z,24.62
2019-02-19T19:08:24.143Z,24.61
2019-02-19T19:10:50.793Z,24.75
2019-02-19T19:13:17.511Z,24.64
2019-02-19T19:15:44.229Z,24.57
2019-02-19T19:18:10.899Z,24.57
2019-02-19T19:20:37.563Z,24.64
2019-02-19T19:23:04.229Z,24.59
2019-02-19T19:25:30.877Z,24.58
2019-02-19T19:27:57.605Z,24.52
2019-02-19T19:30:24.257Z,24.46
2019-02-19T19:32:50.925Z,24.46
2019-02-19T19:35:17.591Z,24.34
2019-02-19T19:37:44.332Z,24.45
2019-02-19T19:40:10.983Z,24.40
2019-02-19T19:42:37.692Z,24.36
2019-02-19T19:45:04.373Z,24.31
2019-02-19T19:47:31.031Z,24.34
2019-02-19T19:49:57.752Z,24.29
2019-02-19T19:52:24.405Z,24.35
2019-02-19T19:54:51.070Z,24.26
2019-02-19T19:57:17.712Z,24.31
2019-02-19T19:59:44.420Z,24.22
2019-02-19T20:02:11.073Z,24.23
2019-02-19T20:04:37.739Z,24.22
2019-02-19T20:07:04.409Z,24.20
2019-02-19T20:09:31.141Z,24.17
2019-02-19T20:11:57.797Z,24.17
2019-02-19T20:14:24.452Z,24.17
2019-02-19T20:16:51.101Z,24.13
2019-02-19T20:19:17.760Z,24.04
2019-02-19T20:21:44.416Z,23.82
2019-02-19T20:24:11.146Z,23.71
2019-02-19T20:26:37.784Z,23.71
2019-02-19T20:29:04.449Z,23.70
2019-02-19T20:31:31.104Z,23.79
2019-02-19T20:33:57.821Z,23.88
2019-02-19T20:36:24.466Z,23.93
2019-02-19T20:38:51.176Z,23.97
2019-02-19T20:41:17.844Z,23.95
2019-02-19T20:43:44.495Z,23.96
2019-02-19T20:46:11.147Z,24.01
2019-02-19T20:48:37.805Z,24.00
2019-02-19T20:51:04.460Z,24.07
2019-02-19T20:53:31.118Z,24.08
2019-02-19T20:55:57.831Z,24.08
2019-02-19T20:58:27.406Z,24.09
2019-02-19T21:00:54.112Z,24.13
2019-02-19T21:03:20.771Z,24.09
2019-02-19T21:05:47.425Z,24.08
2019-02-19T21:08:14.149Z,24.08
2019-02-19T21:10:40.794Z,24.11
2019-02-19T21:13:07.440Z,24.07
2019-02-19T21:15:34.151Z,24.07
2019-02-19T21:18:00.771Z,24.05
2019-02-19T21:20:27.486Z,24.09
2019-02-19T21:22:54.139Z,24.08
2019-02-19T21:25:20.835Z,24.09
2019-02-19T21:27:47.494Z,24.06
2019-02-19T21:30:14.228Z,24.09
2019-02-19T21:32:40.904Z,24.06
2019-02-19T21:35:07.566Z,24.08
2019-02-19T21:37:34.231Z,24.04
2019-02-19T21:40:00.909Z,24.01
2019-02-19T21:42:27.602Z,24.03
2019-02-19T21:44:54.249Z,24.02
2019-02-19T21:47:20.962Z,24.00
2019-02-19T21:49:47.613Z,23.99
2019-02-19T21:52:14.279Z,23.98
2019-02-19T21:54:40.951Z,23.97
2019-02-19T21:57:07.611Z,23.91
2019-02-19T21:59:34.334Z,23.99
2019-02-19T22:02:00.996Z,23.98
2019-02-19T22:04:27.712Z,23.97
2019-02-19T22:06:54.371Z,23.97
2019-02-19T22:09:21.031Z,23.93
2019-02-19T22:11:47.693Z,23.94
2019-02-19T22:14:14.343Z,23.94
2019-02-19T22:16:41.072Z,23.89
2019-02-19T22:19:07.778Z,23.90
2019-02-19T22:21:34.486Z,23.85
2019-02-19T22:24:01.145Z,23.85
2019-02-19T22:26:27.794Z,23.87
2019-02-19T22:28:54.462Z,23.87
2019-02-19T22:31:21.133Z,23.89
2019-02-19T22:33:47.780Z,23.84
2019-02-19T22:36:14.511Z,23.83
2019-02-19T22:38:41.174Z,23.82
2019-02-19T22:41:07.883Z,23.81
2019-02-19T22:43:34.615Z,23.79
2019-02-19T22:46:01.292Z,23.79
2019-02-19T22:48:27.917Z,23.77
2019-02-19T22:50:54.627Z,23.80
2019-02-19T22:53:21.353Z,23.73
2019-02-19T22:55:48.127Z,23.70
2019-02-19T22:58:14.782Z,23.74
2019-02-19T23:00:41.514Z,23.73
2019-02-19T23:03:08.119Z,23.75
2019-02-19T23:05:34.852Z,23.71
2019-02-19T23:08:01.519Z,23.65
2019-02-19T23:10:28.183Z,23.65
2019-02-19T23:12:54.842Z,23.68
2019-02-19T23:15:21.550Z,23.63
2019-02-19T23:17:48.209Z,23.68
2019-02-19T23:20:14.876Z,23.62
2019-02-19T23:22:41.659Z,23.58
2019-02-19T23:25:08.364Z,23.59
2019-02-19T23:27:34.994Z,23.63
2019-02-19T23:30:01.667Z,23.64
2019-02-19T23:32:28.331Z,23.62
2019-02-19T23:34:55.040Z,23.59
2019-02-19T23:37:21.708Z,23.59
2019-02-19T23:39:48.368Z,23.57
2019-02-19T23:42:15.033Z,23.56
2019-02-19T23:44:41.695Z,23.54
2019-02-19T23:47:08.368Z,23.55
2019-02-19T23:49:35.009Z,23.58
2019-02-19T23:52:01.684Z,23.58
2019-02-19T23:54:28.410Z,23.55
2019-02-19T23:56:55.085Z,23.47
2019-02-19T23:59:21.787Z,23.49
